Home > Products > Valid Products > MTR

000
SAUS41 KBOX 240655
MTRMQE
METAR KMQE 240654Z AUTO 33012KT 08/08 A2964 RMK AO1 SLP049 P0004
T00830083





000
SAUS41 KBOX 240555
MTRMQE
METAR KMQE 240554Z AUTO 35012G21KT 08/08 A2964 RMK AO1 SLP047 P0002
60042 T00830083 10100 20083 58002





000
SAUS41 KBOX 240455
MTRMQE
METAR KMQE 240454Z AUTO 35013G21KT 08/08 A2964 RMK AO1 SLP049 P0007
T00830083 401110083





000
SAUS41 KBOX 240455
MTRMQE
METAR KMQE 240454Z AUTO 35013G21KT 08/08 A2964 RMK AO1 SLP049 P0007
T00830083 401110083





000
SAUS41 KBOX 240355
MTRMQE
METAR KMQE 240354Z AUTO 35011G20KT 09/09 A2964 RMK AO1 SLP048 P0009
T00890089





000
SAUS41 KBOX 240355
MTRMQE
METAR KMQE 240354Z AUTO 35011G20KT 09/09 A2964 RMK AO1 SLP048 P0009
T00890089





000
SAUS41 KBOX 240255
MTRMQE
METAR KMQE 240254Z AUTO 36010G17KT 09/09 A2964 RMK AO1 SLP050 P0012
60024 T00890089 50002





000
SAUS41 KBOX 240255
MTRMQE
METAR KMQE 240254Z AUTO 36010G17KT 09/09 A2964 RMK AO1 SLP050 P0012
60024 T00890089 50002





000
SAUS41 KBOX 240155
MTRMQE
METAR KMQE 240154Z AUTO 35012G20KT 310V010 09/09 A2965 RMK AO1
SLP051 P0008 T00940094





000
SAUS41 KBOX 240155
MTRMQE
METAR KMQE 240154Z AUTO 35012G20KT 310V010 09/09 A2965 RMK AO1
SLP051 P0008 T00940094





000
SAUS41 KBOX 240055
MTRMQE
METAR KMQE 240054Z AUTO 36012G25KT 09/09 A2964 RMK AO1 PK WND
02026/0014 SLP050 P0004 T00940094





000
SAUS41 KBOX 232355
MTRMQE
METAR KMQE 232354Z AUTO 01017G26KT 10/09 A2964 RMK AO1 PK WND
35032/2342 SLP048 P0017 60051 T01000094 10111 20100 53020





000
SAUS41 KBOX 232255
MTRMQE
METAR KMQE 232254Z AUTO 02022G38KT 10/10 A2961 RMK AO1 PK WND
02039/2215 SLP039 T01000100





000
SAUS41 KBOX 232155
MTRMQE
METAR KMQE 232154Z AUTO 02017G32KT 10/10 A2959 RMK AO1 PK WND
03037/2107 SLP032 P0001 T01000100





000
SAUS41 KBOX 232055
MTRMQE
METAR KMQE 232054Z AUTO 02020G33KT 11/11 A2958 RMK AO1 PK WND
01033/1959 SLP026 P0005 60033 T01060106 53002





000
SAUS41 KBOX 231955
MTRMQE
METAR KMQE 231954Z AUTO 02023G33KT 11/11 A2956 RMK AO1 PK WND
03035/1931 SLP022 P0017 T01110111





000
SAUS41 KBOX 231955
MTRMQE
METAR KMQE 231954Z AUTO 02023G33KT 11/11 A2956 RMK AO1 PK WND
03035/1931 SLP022 P0017 T01110111





000
SAUS41 KBOX 231855
MTRMQE
METAR KMQE 231854Z AUTO 02016G34KT 11/11 A2957 RMK AO1 PK WND
03034/1846 SLP024 P0011 T01110111





000
SAUS41 KBOX 231855
MTRMQE
METAR KMQE 231854Z AUTO 02016G34KT 11/11 A2957 RMK AO1 PK WND
03034/1846 SLP024 P0011 T01110111





000
SAUS41 KBOX 231755
MTRMQE
METAR KMQE 231754Z AUTO 01020G29KT 11/11 A2957 RMK AO1 PK WND
02032/1706 SLP024 P0003 60018 T01110111 10111 20089 58011





000
SAUS41 KBOX 231755
MTRMQE
METAR KMQE 231754Z AUTO 01020G29KT 11/11 A2957 RMK AO1 PK WND
02032/1706 SLP024 P0003 60018 T01110111 10111 20089 58011





000
SAUS41 KBOX 231655
MTRMQE
METAR KMQE 231654Z AUTO 02016G30KT 11/11 A2958 RMK AO1 PK WND
02030/1648 SLP029 P0001 T01110111





000
SAUS41 KBOX 231655
MTRMQE
METAR KMQE 231654Z AUTO 02016G30KT 11/11 A2958 RMK AO1 PK WND
02030/1648 SLP029 P0001 T01110111





000
SAUS41 KBOX 231555
MTRMQE
METAR KMQE 231554Z AUTO 02017G26KT 11/11 A2960 RMK AO1 PK WND
02033/1541 SLP034 P0001 T01110111





000
SAUS41 KBOX 231455
MTRMQE
METAR KMQE 231454Z AUTO 36018G27KT 10/10 A2960 RMK AO1 PK WND
36032/1404 SLP036 60013 T01000100 56006





000
SAUS41 KBOX 231355
MTRMQE
METAR KMQE 231354Z AUTO 36018G30KT 10/09 A2960 RMK AO1 PK WND
01035/1304 SLP036 P0006 T01000094





000
SAUS41 KBOX 231255
MTRMQE
METAR KMQE 231254Z AUTO 36019G34KT 09/09 A2960 RMK AO1 PK WND
36041/1211 SLP035 P0007 T00940089





000
SAUS41 KBOX 231155
MTRMQE
METAR KMQE 231154Z AUTO 36019G30KT 09/09 A2962 RMK AO1 PK WND
36034/1138 SLP043 P0006 60208 70504 T00890089 10100 20089 58016





000
SAUS41 KBOX 231055
MTRMQE
METAR KMQE 231054Z AUTO 01019G32KT 09/09 A2967 RMK AO1 PK WND
02032/1052 SLP058 P0017 T00940094





000
SAUS41 KBOX 230955
MTRMQE
METAR KMQE 230954Z AUTO 02017G33KT 10/09 A2966 RMK AO1 PK WND
01035/0914 SLP056 P0022 T01000094





000
SAUS41 KBOX 230955
MTRMQE
METAR KMQE 230954Z AUTO 02017G33KT 10/09 A2966 RMK AO1 PK WND
01035/0914 SLP056 P0022 T01000094





000
SAUS41 KBOX 230855
MTRMQE
METAR KMQE 230854Z AUTO 01016G27KT 09/09 A2967 RMK AO1 PK WND
03036/0831 SLP059 P0042 60163 T00890089 56033





000
SAUS41 KBOX 230755
MTRMQE
METAR KMQE 230754Z AUTO 01017G27KT 09/09 A2968 RMK AO1 PK WND
03034/0706 SLP064 P0047 T00890089





000
SAUS41 KBOX 230655
MTRMQE
METAR KMQE 230654Z AUTO 01015G29KT 09/09 A2970 RMK AO1 PK WND
01029/0646 SLP070 P0074 T00940094





000
SAUS41 KBOX 230555
MTRMQE
METAR KMQE 230554Z AUTO 35008G19KT 330V040 09/09 A2977 RMK AO1 PK
WND 01033/0513 SLP093 P0065 60243 T00940094 10100 20094 53002





000
SAUS41 KBOX 230456
MTRMQE
METAR KMQE 230454Z AUTO 02019G34KT 09/09 A2975 RMK AO1 PK WND
03045/0430 SLP087 P0056 T00940094 401220089





000
SAUS41 KBOX 230456
MTRMQE
METAR KMQE 230454Z AUTO 02019G34KT 09/09 A2975 RMK AO1 PK WND
03045/0430 SLP087 P0056 T00940094 401220089





000
SAUS41 KBOX 230355
MTRMQE
METAR KMQE 230354Z AUTO 03024G41KT 09/09 A2972 RMK AO1 PK WND
03049/0322 SLP077 P0027 T00940094





000
SAUS41 KBOX 230355
MTRMQE
METAR KMQE 230354Z AUTO 03024G41KT 09/09 A2972 RMK AO1 PK WND
03049/0322 SLP077 P0027 T00940094





000
SAUS41 KBOX 230255
MTRMQE
METAR KMQE 230254Z AUTO 03022G45KT 09/09 A2976 RMK AO1 PK WND
04047/0241 SLP089 P0059 60095 T00940094 58013





000
SAUS41 KBOX 230155
MTRMQE
METAR KMQE 230154Z AUTO 04019G35KT 09/09 A2980 RMK AO1 PK WND
01046/0108 SLP103 P0025 T00940094





000
SAUS41 KBOX 230155
MTRMQE
METAR KMQE 230154Z AUTO 04019G35KT 09/09 A2980 RMK AO1 PK WND
01046/0108 SLP103 P0025 T00940094





000
SAUS41 KBOX 230055
MTRMQE
METAR KMQE 230054Z AUTO 03025G44KT 09/09 A2979 RMK AO1 PK WND
04048/0035 SLP098 P0011 T00940094





000
SAUS41 KBOX 230055
MTRMQE
METAR KMQE 230054Z AUTO 03025G44KT 09/09 A2979 RMK AO1 PK WND
04048/0035 SLP098 P0011 T00940094





000
SAUS41 KBOX 222356
MTRMQE
METAR KMQE 222354Z AUTO 04026G51KT 10/10 A2980 RMK AO1 PK WND
04051/2351 SLP103 P0010 60030 T01000100 10100 20089 58020





000
SAUS41 KBOX 222356
MTRMQE
METAR KMQE 222354Z AUTO 04026G51KT 10/10 A2980 RMK AO1 PK WND
04051/2351 SLP103 P0010 60030 T01000100 10100 20089 58020





000
SAUS41 KBOX 222255
MTRMQE
METAR KMQE 222254Z AUTO 04023G41KT 10/10 A2982 RMK AO1 PK WND
04041/2245 SLP110 P0007 T01000100





000
SAUS41 KBOX 222255
MTRMQE
METAR KMQE 222254Z AUTO 04023G41KT 10/10 A2982 RMK AO1 PK WND
04041/2245 SLP110 P0007 T01000100





000
SAUS41 KBOX 222155
MTRMQE
METAR KMQE 222154Z AUTO 03020G43KT 09/09 A2984 RMK AO1 PK WND
04043/2104 SLP118 P0009 T00940094





000
SAUS41 KBOX 222056
MTRMQE
METAR KMQE 222054Z AUTO 03022G37KT 09/09 A2986 RMK AO1 PK WND
04039/2031 SLP124 P0003 60004 T00890089 58012





000
SAUS41 KBOX 221955
MTRMQE
METAR KMQE 221954Z AUTO 03018G36KT 09/09 A2987 RMK AO1 PK WND
04036/1949 SLP126 T00940089





000
SAUS41 KBOX 221855
MTRMQE
METAR KMQE 221854Z AUTO 03019G30KT 09/09 A2990 RMK AO1 PK WND
02035/1825 SLP137 P0001 T00940094





000
SAUS41 KBOX 221755
MTRMQE
METAR KMQE 221754Z AUTO 03016G29KT 09/09 A2989 RMK AO1 PK WND
02031/1702 PRESFR SLP134 P0001 60023 T00940094 10122 20094 58024





000
SAUS41 KBOX 221755
MTRMQE
METAR KMQE 221754Z AUTO 03016G29KT 09/09 A2989 RMK AO1 PK WND
02031/1702 PRESFR SLP134 P0001 60023 T00940094 10122 20094 58024





000
SAUS41 KBOX 221656
MTRMQE
METAR KMQE 221654Z AUTO 02018G32KT 09/09 A2993 RMK AO1 PK WND
02033/1627 SLP147 P0009 T00940094





000
SAUS41 KBOX 221656
MTRMQE
METAR KMQE 221654Z AUTO 02018G32KT 09/09 A2993 RMK AO1 PK WND
02033/1627 SLP147 P0009 T00940094





000
SAUS41 KBOX 221555
MTRMQE
METAR KMQE 221554Z AUTO 02017G32KT 10/10 A2995 RMK AO1 PK WND
03035/1520 SLP155 P0004 T01000100





000
SAUS41 KBOX 221555
MTRMQE
METAR KMQE 221554Z AUTO 02017G32KT 10/10 A2995 RMK AO1 PK WND
03035/1520 SLP155 P0004 T01000100





000
SAUS41 KBOX 221455
MTRMQE
METAR KMQE 221454Z AUTO 03017G33KT 10/10 A2997 RMK AO1 PK WND
02033/1449 SLP159 P0003 60009 T01000100 50002





000
SAUS41 KBOX 221356
MTRMQE
METAR KMQE 221354Z AUTO 04018G33KT 11/11 A2998 RMK AO1 PK WND
03033/1354 SLP165 P0005 T01060106





000
SAUS41 KBOX 221255
MTRMQE
METAR KMQE 221254Z AUTO 05015G25KT 11/11 A2999 RMK AO1 PK WND
03035/1230 SLP167 P0001 T01110111





000
SAUS41 KBOX 221155
MTRMQE
METAR KMQE 221154Z AUTO 06017G31KT 12/12 A2996 RMK AO1 PK WND
04031/1152 SLP156 P0002 60007 70022 T01220122 10122 20089 50001





000
SAUS41 KBOX 221055
MTRMQE
METAR KMQE 221054Z AUTO 01009KT 10/10 A2996 RMK AO1 SLP158 P0002
T01000100





000
SAUS41 KBOX 220956
MTRMQE
METAR KMQE 220954Z AUTO 35007KT 09/09 A2997 RMK AO1 SLP160 P0002
T00940094 $





000
SAUS41 KBOX 220956
MTRMQE
METAR KMQE 220954Z AUTO 35007KT 09/09 A2997 RMK AO1 SLP160 P0002
T00940094 $





000
SAUS41 KBOX 220855
MTRMQE
METAR KMQE 220854Z AUTO 35009KT 09/09 A2996 RMK AO1 SLP156 60001
T00940094 53001 $





000
SAUS41 KBOX 220755
MTRMQE
METAR KMQE 220754Z AUTO 36010KT 09/09 A2995 RMK AO1 SLP153 P0001
T00940094 $





000
SAUS41 KBOX 220655
MTRMQE
METAR KMQE 220654Z AUTO 36012KT 09/09 A2995 RMK AO1 SLP154 T00940094
$





000
SAUS41 KBOX 220555
MTRMQE
METAR KMQE 220554Z AUTO 36012KT 10/10 A2995 RMK AO1 SLP154 T01000100
10122 20100 58004 $





000
SAUS41 KBOX 220555
MTRMQE
METAR KMQE 220554Z AUTO 36012KT 10/10 A2995 RMK AO1 SLP154 T01000100
10122 20100 58004 $





000
SAUS41 KBOX 220455
MTRMQE
METAR KMQE 220454Z AUTO 36008KT 11/11 A2996 RMK AO1 SLP158 T01060106
401610089 $





000
SAUS41 KBOX 220455
MTRMQE
METAR KMQE 220454Z AUTO 36008KT 11/11 A2996 RMK AO1 SLP158 T01060106
401610089 $





000
SAUS41 KBOX 220355
MTRMQE
METAR KMQE 220354Z AUTO 36009KT 11/11 A2997 RMK AO1 SLP159 T01110111
$





000
SAUS41 KBOX 220355
MTRMQE
METAR KMQE 220354Z AUTO 36009KT 11/11 A2997 RMK AO1 SLP159 T01110111
$





000
SAUS41 KBOX 220255
MTRMQE
METAR KMQE 220254Z AUTO 35010KT 12/12 A2997 RMK AO1 SLP159 T01170117
51016 $





000
SAUS41 KBOX 220255
MTRMQE
METAR KMQE 220254Z AUTO 35010KT 12/12 A2997 RMK AO1 SLP159 T01170117
51016 $





000
SAUS41 KBOX 220155
MTRMQE
METAR KMQE 220154Z AUTO 01009KT 12/12 A2996 RMK AO1 SLP155 T01220122
$





000
SAUS41 KBOX 220155
MTRMQE
METAR KMQE 220154Z AUTO 01009KT 12/12 A2996 RMK AO1 SLP155 T01220122
$





000
SAUS41 KBOX 220055
MTRMQE
METAR KMQE 220054Z AUTO 03008KT 12/12 A2994 RMK AO1 SLP150 T01220122
$





000
SAUS41 KBOX 212355
MTRMQE
METAR KMQE 212354Z AUTO 03010KT 12/12 A2992 RMK AO1 SLP143 60015
T01220122 10150 20122 51007 $





000
SAUS41 KBOX 212255
MTRMQE
METAR KMQE 212254Z AUTO 04008KT 12/12 A2992 RMK AO1 SLP143 T01220122
$





000
SAUS41 KBOX 212255
MTRMQE
METAR KMQE 212254Z AUTO 04008KT 12/12 A2992 RMK AO1 SLP143 T01220122
$





000
SAUS41 KBOX 212155
MTRMQE
METAR KMQE 212154Z AUTO 04006KT 13/13 A2991 RMK AO1 SLP140 T01280128
$





000
SAUS41 KBOX 212155
MTRMQE
METAR KMQE 212154Z AUTO 04006KT 13/13 A2991 RMK AO1 SLP140 T01280128
$





000
SAUS41 KBOX 212055
MTRMQE
METAR KMQE 212054Z AUTO 08007KT 14/13 A2990 RMK AO1 SLP136 60015
T01390133 56003 $





000
SAUS41 KBOX 211955
MTRMQE
METAR KMQE 211954Z AUTO 11007KT 13/13 A2990 RMK AO1 SLP135 P0010
T01330133





000
SAUS41 KBOX 211855
MTRMQE
METAR KMQE 211854Z AUTO 13006KT 13/13 A2991 RMK AO1 SLP138 P0005
T01330133





000
SAUS41 KBOX 211755
MTRMQE
METAR KMQE 211754Z AUTO 14006KT 15/13 A2991 RMK AO1 SLP138 T01500128
10161 20111 58014





000
SAUS41 KBOX 211656
MTRMQE
METAR KMQE 211654Z AUTO VRB05KT 16/12 A2992 RMK AO1 SLP142 T01610122





000
SAUS41 KBOX 211656
MTRMQE
METAR KMQE 211654Z AUTO VRB05KT 16/12 A2992 RMK AO1 SLP142 T01610122





000
SAUS41 KBOX 211555
MTRMQE
METAR KMQE 211554Z AUTO 14006KT 15/12 A2994 RMK AO1 SLP148 T01500122





000
SAUS41 KBOX 211555
MTRMQE
METAR KMQE 211554Z AUTO 14006KT 15/12 A2994 RMK AO1 SLP148 T01500122





000
SAUS41 KBOX 211455
MTRMQE
METAR KMQE 211454Z AUTO 14006KT 15/12 A2995 RMK AO1 SLP152 T01500117
58003





000
SAUS41 KBOX 211355
MTRMQE
METAR KMQE 211354Z AUTO 13007KT 14/11 A2996 RMK AO1 SLP155 T01390111





000
SAUS41 KBOX 211255
MTRMQE
METAR KMQE 211254Z AUTO 12010KT 12/11 A2996 RMK AO1 SLP157 T01220111





000
SAUS41 KBOX 211155
MTRMQE
METAR KMQE 211154Z AUTO 11011KT 11/11 A2996 RMK AO1 SLP156 60001
70001 T01110106 10111 20089 55001





000
SAUS41 KBOX 211155
MTRMQE
METAR KMQE 211154Z AUTO 11011KT 11/11 A2996 RMK AO1 SLP156 60001
70001 T01110106 10111 20089 55001





000
SAUS41 KBOX 211055
MTRMQE
METAR KMQE 211054Z AUTO 11012KT 11/09 A2995 RMK AO1 SLP153 T01060089





000
SAUS41 KBOX 211055
MTRMQE
METAR KMQE 211054Z AUTO 11012KT 11/09 A2995 RMK AO1 SLP153 T01060089





000
SAUS41 KBOX 210955
MTRMQE
METAR KMQE 210954Z AUTO 11005KT 11/09 A2995 RMK AO1 SLP155 T01060089





000
SAUS41 KBOX 210955
MTRMQE
METAR KMQE 210954Z AUTO 11005KT 11/09 A2995 RMK AO1 SLP155 T01060089





000
SAUS41 KBOX 210855
MTRMQE
METAR KMQE 210854Z AUTO 13006KT 09/08 A2996 RMK AO1 SLP157 P0001
60001 T00940083 56009





000
SAUS41 KBOX 210755
MTRMQE
METAR KMQE 210754Z AUTO 14005KT 10/07 A2997 RMK AO1 SLP159 T01000072





    US Dept of Commerce
    National Oceanic and Atmospheric Administration
    National Weather Service
    1325 East West Highway
    Silver Spring, MD 20910
    Page Author: NWS Internet Services Team
Disclaimer
Information Quality
Credits
Glossary
Privacy Policy
Freedom of Information Act (FOIA)
About Us
Career Opportunities